sensor_id;sensor_type;location;lat;lon;timestamp;pressure;altitude;pressure_sealevel;temperature;humidity
22333;BME280;11334;36.986;-121.936;2024-01-30T00:00:05;101375.00;;;21.20;46.15
22333;BME280;11334;36.986;-121.936;2024-01-30T00:02:32;101375.44;;;21.17;46.63
22333;BME280;11334;36.986;-121.936;2024-01-30T00:04:58;101365.47;;;21.04;46.79
22333;BME280;11334;36.986;-121.936;2024-01-30T00:07:24;101382.47;;;21.11;47.70
22333;BME280;11334;36.986;-121.936;2024-01-30T00:09:51;101384.78;;;21.08;48.17
22333;BME280;11334;36.986;-121.936;2024-01-30T00:12:17;101388.09;;;21.03;48.58
22333;BME280;11334;36.986;-121.936;2024-01-30T00:14:43;101393.06;;;21.00;48.41
22333;BME280;11334;36.986;-121.936;2024-01-30T00:17:09;101395.75;;;21.00;48.25
22333;BME280;11334;36.986;-121.936;2024-01-30T00:19:36;101401.13;;;21.00;48.68
22333;BME280;11334;36.986;-121.936;2024-01-30T00:22:02;101391.81;;;20.90;49.11
22333;BME280;11334;36.986;-121.936;2024-01-30T00:24:28;101402.81;;;21.01;49.78
22333;BME280;11334;36.986;-121.936;2024-01-30T00:26:54;101409.84;;;21.02;48.64
22333;BME280;11334;36.986;-121.936;2024-01-30T00:29:20;101411.53;;;21.03;48.59
22333;BME280;11334;36.986;-121.936;2024-01-30T00:31:48;101402.38;;;20.97;49.01
22333;BME280;11334;36.986;-121.936;2024-01-30T00:34:14;101410.06;;;21.00;50.04
22333;BME280;11334;36.986;-121.936;2024-01-30T00:36:40;101406.53;;;21.00;50.11
22333;BME280;11334;36.986;-121.936;2024-01-30T00:39:07;101421.88;;;20.99;50.51
22333;BME280;11334;36.986;-121.936;2024-01-30T00:41:35;101421.25;;;20.97;50.81
22333;BME280;11334;36.986;-121.936;2024-01-30T00:44:01;101428.72;;;20.95;51.37
22333;BME280;11334;36.986;-121.936;2024-01-30T00:46:27;101428.53;;;20.91;51.65
22333;BME280;11334;36.986;-121.936;2024-01-30T00:48:53;101436.16;;;20.87;52.33
22333;BME280;11334;36.986;-121.936;2024-01-30T00:51:19;101435.94;;;20.82;52.55
22333;BME280;11334;36.986;-121.936;2024-01-30T00:53:46;101445.50;;;20.78;52.71
22333;BME280;11334;36.986;-121.936;2024-01-30T00:56:12;101445.06;;;20.75;53.24
22333;BME280;11334;36.986;-121.936;2024-01-30T00:58:39;101441.13;;;20.77;52.74
22333;BME280;11334;36.986;-121.936;2024-01-30T01:01:05;101441.53;;;20.74;53.72
22333;BME280;11334;36.986;-121.936;2024-01-30T01:03:33;101446.72;;;20.69;52.99
22333;BME280;11334;36.986;-121.936;2024-01-30T01:05:59;101442.78;;;20.72;51.01
22333;BME280;11334;36.986;-121.936;2024-01-30T01:08:25;101446.28;;;20.59;51.95
22333;BME280;11334;36.986;-121.936;2024-01-30T01:10:52;101442.69;;;20.53;53.44
22333;BME280;11334;36.986;-121.936;2024-01-30T01:13:18;101435.22;;;20.42;54.53
22333;BME280;11334;36.986;-121.936;2024-01-30T01:15:44;101441.22;;;20.37;54.90
22333;BME280;11334;36.986;-121.936;2024-01-30T01:18:11;101439.94;;;20.27;55.39
22333;BME280;11334;36.986;-121.936;2024-01-30T01:20:37;101445.28;;;20.21;55.41
22333;BME280;11334;36.986;-121.936;2024-01-30T01:23:03;101446.09;;;20.15;56.16
22333;BME280;11334;36.986;-121.936;2024-01-30T01:25:29;101448.75;;;20.08;56.44
22333;BME280;11334;36.986;-121.936;2024-01-30T01:27:56;101450.16;;;19.98;57.15
22333;BME280;11334;36.986;-121.936;2024-01-30T01:30:22;101449.50;;;19.90;57.53
22333;BME280;11334;36.986;-121.936;2024-01-30T01:32:49;101460.03;;;19.85;57.82
22333;BME280;11334;36.986;-121.936;2024-01-30T01:35:22;101453.31;;;19.74;58.88
22333;BME280;11334;36.986;-121.936;2024-01-30T01:37:51;101456.59;;;19.70;59.67
22333;BME280;11334;36.986;-121.936;2024-01-30T01:40:26;101440.81;;;19.61;61.03
22333;BME280;11334;36.986;-121.936;2024-01-30T01:42:55;101443.03;;;19.51;61.04
22333;BME280;11334;36.986;-121.936;2024-01-30T01:45:21;101440.50;;;19.43;61.59
22333;BME280;11334;36.986;-121.936;2024-01-30T01:47:50;101439.38;;;19.31;62.09
22333;BME280;11334;36.986;-121.936;2024-01-30T01:50:18;101440.16;;;19.25;62.83
22333;BME280;11334;36.986;-121.936;2024-01-30T01:52:49;101437.84;;;19.22;64.08
22333;BME280;11334;36.986;-121.936;2024-01-30T01:55:16;101435.03;;;19.09;64.99
22333;BME280;11334;36.986;-121.936;2024-01-30T01:57:47;101442.22;;;19.02;65.65
22333;BME280;11334;36.986;-121.936;2024-01-30T02:00:14;101437.44;;;18.98;67.37
22333;BME280;11334;36.986;-121.936;2024-01-30T02:02:41;101437.81;;;18.95;68.31
22333;BME280;11334;36.986;-121.936;2024-01-30T02:05:09;101436.00;;;18.81;69.03
22333;BME280;11334;36.986;-121.936;2024-01-30T02:07:36;101428.53;;;18.77;70.51
22333;BME280;11334;36.986;-121.936;2024-01-30T02:10:02;101417.66;;;18.64;70.92
22333;BME280;11334;36.986;-121.936;2024-01-30T02:12:29;101432.47;;;18.60;71.93
22333;BME280;11334;36.986;-121.936;2024-01-30T02:14:55;101435.28;;;18.52;72.29
22333;BME280;11334;36.986;-121.936;2024-01-30T02:17:23;101431.44;;;18.40;72.71
22333;BME280;11334;36.986;-121.936;2024-01-30T02:19:49;101445.50;;;18.42;72.81
22333;BME280;11334;36.986;-121.936;2024-01-30T02:22:16;101435.72;;;18.35;73.78
22333;BME280;11334;36.986;-121.936;2024-01-30T02:24:42;101449.09;;;18.29;73.31
22333;BME280;11334;36.986;-121.936;2024-01-30T02:27:08;101446.13;;;18.24;72.94
22333;BME280;11334;36.986;-121.936;2024-01-30T02:29:34;101457.81;;;18.16;73.33
22333;BME280;11334;36.986;-121.936;2024-01-30T02:32:01;101469.00;;;18.05;73.74
22333;BME280;11334;36.986;-121.936;2024-01-30T02:34:27;101465.47;;;18.05;73.54
22333;BME280;11334;36.986;-121.936;2024-01-30T02:36:53;101456.22;;;17.93;73.68
22333;BME280;11334;36.986;-121.936;2024-01-30T02:39:19;101464.81;;;17.89;74.08
22333;BME280;11334;36.986;-121.936;2024-01-30T02:41:46;101465.38;;;17.84;74.39
22333;BME280;11334;36.986;-121.936;2024-01-30T02:44:12;101464.34;;;17.71;74.69
22333;BME280;11334;36.986;-121.936;2024-01-30T02:46:38;101469.16;;;17.61;74.92
22333;BME280;11334;36.986;-121.936;2024-01-30T02:49:04;101468.69;;;17.58;75.17
22333;BME280;11334;36.986;-121.936;2024-01-30T02:51:30;101475.63;;;17.52;74.30
22333;BME280;11334;36.986;-121.936;2024-01-30T02:53:56;101478.03;;;17.47;74.15
22333;BME280;11334;36.986;-121.936;2024-01-30T02:56:23;101470.38;;;17.44;73.92
22333;BME280;11334;36.986;-121.936;2024-01-30T02:58:49;101487.69;;;17.34;73.67
22333;BME280;11334;36.986;-121.936;2024-01-30T03:01:15;101487.97;;;17.25;73.89
22333;BME280;11334;36.986;-121.936;2024-01-30T03:03:41;101483.31;;;17.19;74.13
22333;BME280;11334;36.986;-121.936;2024-01-30T03:06:09;101477.00;;;17.12;74.47
22333;BME280;11334;36.986;-121.936;2024-01-30T03:08:35;101486.03;;;17.11;73.73
22333;BME280;11334;36.986;-121.936;2024-01-30T03:11:01;101491.84;;;17.00;73.75
22333;BME280;11334;36.986;-121.936;2024-01-30T03:13:27;101492.00;;;16.99;74.08
22333;BME280;11334;36.986;-121.936;2024-01-30T03:15:54;101505.81;;;16.88;73.02
22333;BME280;11334;36.986;-121.936;2024-01-30T03:18:20;101503.66;;;16.83;73.77
22333;BME280;11334;36.986;-121.936;2024-01-30T03:20:46;101501.56;;;16.71;73.69
22333;BME280;11334;36.986;-121.936;2024-01-30T03:23:13;101509.97;;;16.68;73.72
22333;BME280;11334;36.986;-121.936;2024-01-30T03:25:39;101505.66;;;16.59;73.66
22333;BME280;11334;36.986;-121.936;2024-01-30T03:28:05;101508.56;;;16.50;74.01
22333;BME280;11334;36.986;-121.936;2024-01-30T03:30:31;101508.09;;;16.46;73.03
22333;BME280;11334;36.986;-121.936;2024-01-30T03:32:58;101513.28;;;16.40;73.21
22333;BME280;11334;36.986;-121.936;2024-01-30T03:35:24;101527.84;;;16.38;72.81
22333;BME280;11334;36.986;-121.936;2024-01-30T03:37:50;101523.03;;;16.33;71.82
22333;BME280;11334;36.986;-121.936;2024-01-30T03:40:16;101513.03;;;16.27;72.66
22333;BME280;11334;36.986;-121.936;2024-01-30T03:42:43;101520.38;;;16.25;72.39
22333;BME280;11334;36.986;-121.936;2024-01-30T03:45:09;101514.91;;;16.19;72.45
22333;BME280;11334;36.986;-121.936;2024-01-30T03:47:35;101518.09;;;16.14;73.21
22333;BME280;11334;36.986;-121.936;2024-01-30T03:50:01;101521.75;;;16.06;72.71
22333;BME280;11334;36.986;-121.936;2024-01-30T03:52:28;101518.25;;;16.05;72.04
22333;BME280;11334;36.986;-121.936;2024-01-30T03:54:54;101515.78;;;15.96;73.19
22333;BME280;11334;36.986;-121.936;2024-01-30T03:57:20;101510.78;;;15.93;73.21
22333;BME280;11334;36.986;-121.936;2024-01-30T03:59:47;101514.16;;;15.87;73.25
22333;BME280;11334;36.986;-121.936;2024-01-30T04:02:13;101503.16;;;15.82;72.35
22333;BME280;11334;36.986;-121.936;2024-01-30T04:04:40;101500.66;;;15.73;72.92
22333;BME280;11334;36.986;-121.936;2024-01-30T04:07:06;101501.16;;;15.68;73.39
22333;BME280;11334;36.986;-121.936;2024-01-30T04:09:32;101496.88;;;15.59;73.47
22333;BME280;11334;36.986;-121.936;2024-01-30T04:11:58;101497.53;;;15.53;73.61
22333;BME280;11334;36.986;-121.936;2024-01-30T04:14:25;101496.03;;;15.51;73.87
22333;BME280;11334;36.986;-121.936;2024-01-30T04:16:51;101491.88;;;15.41;74.00
22333;BME280;11334;36.986;-121.936;2024-01-30T04:19:17;101489.22;;;15.33;74.60
22333;BME280;11334;36.986;-121.936;2024-01-30T04:21:43;101515.59;;;15.36;75.26
22333;BME280;11334;36.986;-121.936;2024-01-30T04:24:10;101508.91;;;15.32;75.76
22333;BME280;11334;36.986;-121.936;2024-01-30T04:26:36;101507.41;;;15.29;75.93
22333;BME280;11334;36.986;-121.936;2024-01-30T04:29:02;101500.25;;;15.30;76.48
22333;BME280;11334;36.986;-121.936;2024-01-30T04:31:28;101494.75;;;15.23;76.62
22333;BME280;11334;36.986;-121.936;2024-01-30T04:33:55;101499.38;;;15.29;76.03
22333;BME280;11334;36.986;-121.936;2024-01-30T04:36:21;101503.06;;;15.28;76.54
22333;BME280;11334;36.986;-121.936;2024-01-30T04:38:47;101489.91;;;15.19;77.18
22333;BME280;11334;36.986;-121.936;2024-01-30T04:41:13;101511.91;;;15.21;76.94
22333;BME280;11334;36.986;-121.936;2024-01-30T04:43:39;101514.09;;;15.18;76.86
22333;BME280;11334;36.986;-121.936;2024-01-30T04:46:06;101515.09;;;15.17;77.05
22333;BME280;11334;36.986;-121.936;2024-01-30T04:48:32;101510.91;;;15.14;78.31
22333;BME280;11334;36.986;-121.936;2024-01-30T04:50:58;101502.56;;;15.17;78.46
22333;BME280;11334;36.986;-121.936;2024-01-30T04:53:26;101502.41;;;15.03;78.66
22333;BME280;11334;36.986;-121.936;2024-01-30T04:55:53;101508.72;;;15.02;78.81
22333;BME280;11334;36.986;-121.936;2024-01-30T04:58:19;101502.41;;;14.95;78.58
22333;BME280;11334;36.986;-121.936;2024-01-30T05:00:45;101515.91;;;15.01;78.01
22333;BME280;11334;36.986;-121.936;2024-01-30T05:03:14;101519.72;;;14.99;77.77
22333;BME280;11334;36.986;-121.936;2024-01-30T05:05:40;101534.25;;;14.96;77.66
22333;BME280;11334;36.986;-121.936;2024-01-30T05:08:06;101540.91;;;14.92;77.81
22333;BME280;11334;36.986;-121.936;2024-01-30T05:10:32;101557.44;;;14.96;77.05
22333;BME280;11334;36.986;-121.936;2024-01-30T05:12:59;101557.75;;;14.93;76.73
22333;BME280;11334;36.986;-121.936;2024-01-30T05:15:25;101568.44;;;14.85;77.99
22333;BME280;11334;36.986;-121.936;2024-01-30T05:17:51;101567.91;;;14.82;77.90
22333;BME280;11334;36.986;-121.936;2024-01-30T05:20:17;101570.41;;;14.75;78.27
22333;BME280;11334;36.986;-121.936;2024-01-30T05:22:43;101571.38;;;14.74;78.44
22333;BME280;11334;36.986;-121.936;2024-01-30T05:25:12;101572.06;;;14.68;78.45
22333;BME280;11334;36.986;-121.936;2024-01-30T05:27:38;101571.50;;;14.65;78.37
22333;BME280;11334;36.986;-121.936;2024-01-30T05:30:06;101574.84;;;14.59;79.25
22333;BME280;11334;36.986;-121.936;2024-01-30T05:32:33;101572.19;;;14.59;78.58
22333;BME280;11334;36.986;-121.936;2024-01-30T05:34:59;101557.66;;;14.46;79.00
22333;BME280;11334;36.986;-121.936;2024-01-30T05:37:25;101552.78;;;14.41;79.61
22333;BME280;11334;36.986;-121.936;2024-01-30T05:39:51;101548.50;;;14.48;79.45
22333;BME280;11334;36.986;-121.936;2024-01-30T05:42:17;101531.81;;;14.46;77.89
22333;BME280;11334;36.986;-121.936;2024-01-30T05:44:44;101534.28;;;14.40;78.35
22333;BME280;11334;36.986;-121.936;2024-01-30T05:47:10;101535.78;;;14.42;78.52
22333;BME280;11334;36.986;-121.936;2024-01-30T05:49:36;101524.78;;;14.37;78.04
22333;BME280;11334;36.986;-121.936;2024-01-30T05:52:03;101507.41;;;14.25;78.12
22333;BME280;11334;36.986;-121.936;2024-01-30T05:54:29;101513.72;;;14.24;79.30
22333;BME280;11334;36.986;-121.936;2024-01-30T05:56:56;101502.72;;;14.20;78.72
22333;BME280;11334;36.986;-121.936;2024-01-30T05:59:22;101481.06;;;14.22;78.26
22333;BME280;11334;36.986;-121.936;2024-01-30T06:01:48;101487.09;;;14.24;77.96
22333;BME280;11334;36.986;-121.936;2024-01-30T06:04:15;101484.75;;;14.22;77.55
22333;BME280;11334;36.986;-121.936;2024-01-30T06:06:41;101500.06;;;14.20;77.58
22333;BME280;11334;36.986;-121.936;2024-01-30T06:09:08;101491.22;;;14.19;77.01
22333;BME280;11334;36.986;-121.936;2024-01-30T06:11:35;101490.41;;;14.19;77.46
22333;BME280;11334;36.986;-121.936;2024-01-30T06:14:01;101484.66;;;14.06;78.85
22333;BME280;11334;36.986;-121.936;2024-01-30T06:16:27;101478.72;;;14.12;78.35
22333;BME280;11334;36.986;-121.936;2024-01-30T06:18:56;101480.69;;;14.02;78.13
22333;BME280;11334;36.986;-121.936;2024-01-30T06:21:23;101486.19;;;14.08;77.96
22333;BME280;11334;36.986;-121.936;2024-01-30T06:23:49;101490.19;;;14.04;77.58
22333;BME280;11334;36.986;-121.936;2024-01-30T06:26:16;101504.31;;;14.05;78.70
22333;BME280;11334;36.986;-121.936;2024-01-30T06:28:42;101501.81;;;14.03;78.26
22333;BME280;11334;36.986;-121.936;2024-01-30T06:31:08;101509.16;;;14.01;77.22
22333;BME280;11334;36.986;-121.936;2024-01-30T06:33:34;101509.44;;;13.98;77.58
22333;BME280;11334;36.986;-121.936;2024-01-30T06:36:00;101509.75;;;13.95;77.87
22333;BME280;11334;36.986;-121.936;2024-01-30T06:38:26;101511.72;;;13.93;78.71
22333;BME280;11334;36.986;-121.936;2024-01-30T06:40:53;101502.41;;;13.89;79.36
22333;BME280;11334;36.986;-121.936;2024-01-30T06:43:19;101502.53;;;13.88;78.87
22333;BME280;11334;36.986;-121.936;2024-01-30T06:45:45;101499.69;;;13.82;79.12
22333;BME280;11334;36.986;-121.936;2024-01-30T06:48:12;101489.72;;;13.84;78.71
22333;BME280;11334;36.986;-121.936;2024-01-30T06:50:38;101496.22;;;13.81;78.80
22333;BME280;11334;36.986;-121.936;2024-01-30T06:53:04;101507.16;;;13.78;78.90
22333;BME280;11334;36.986;-121.936;2024-01-30T06:55:30;101504.13;;;13.73;80.12
22333;BME280;11334;36.986;-121.936;2024-01-30T06:57:56;101500.63;;;13.73;79.94
22333;BME280;11334;36.986;-121.936;2024-01-30T07:00:22;101495.00;;;13.76;79.96
22333;BME280;11334;36.986;-121.936;2024-01-30T07:02:49;101497.16;;;13.72;79.47
22333;BME280;11334;36.986;-121.936;2024-01-30T07:05:15;101496.81;;;13.75;78.82
22333;BME280;11334;36.986;-121.936;2024-01-30T07:07:43;101486.00;;;13.69;79.19
22333;BME280;11334;36.986;-121.936;2024-01-30T07:10:09;101495.31;;;13.73;79.33
22333;BME280;11334;36.986;-121.936;2024-01-30T07:12:35;101491.97;;;13.71;79.37
22333;BME280;11334;36.986;-121.936;2024-01-30T07:15:01;101491.13;;;13.70;78.78
22333;BME280;11334;36.986;-121.936;2024-01-30T07:17:29;101490.78;;;13.65;80.01
22333;BME280;11334;36.986;-121.936;2024-01-30T07:19:55;101487.94;;;13.59;80.06
22333;BME280;11334;36.986;-121.936;2024-01-30T07:22:21;101488.13;;;13.65;79.89
22333;BME280;11334;36.986;-121.936;2024-01-30T07:24:47;101486.28;;;13.66;79.16
22333;BME280;11334;36.986;-121.936;2024-01-30T07:27:15;101488.66;;;13.69;79.03
22333;BME280;11334;36.986;-121.936;2024-01-30T07:29:43;101480.47;;;13.70;78.41
22333;BME280;11334;36.986;-121.936;2024-01-30T07:32:09;101466.44;;;13.60;78.19
22333;BME280;11334;36.986;-121.936;2024-01-30T07:34:35;101491.31;;;13.69;78.37
22333;BME280;11334;36.986;-121.936;2024-01-30T07:37:02;101479.44;;;13.63;79.02
22333;BME280;11334;36.986;-121.936;2024-01-30T07:39:28;101475.75;;;13.57;80.32
22333;BME280;11334;36.986;-121.936;2024-01-30T07:41:54;101474.75;;;13.57;80.56
22333;BME280;11334;36.986;-121.936;2024-01-30T07:44:21;101477.94;;;13.61;80.33
22333;BME280;11334;36.986;-121.936;2024-01-30T07:46:48;101472.47;;;13.62;79.97
22333;BME280;11334;36.986;-121.936;2024-01-30T07:49:14;101479.81;;;13.68;79.36
22333;BME280;11334;36.986;-121.936;2024-01-30T07:51:40;101484.47;;;13.66;78.33
22333;BME280;11334;36.986;-121.936;2024-01-30T07:54:16;101476.97;;;13.62;78.45
22333;BME280;11334;36.986;-121.936;2024-01-30T07:56:43;101477.09;;;13.60;78.83
22333;BME280;11334;36.986;-121.936;2024-01-30T07:59:12;101478.25;;;13.58;78.58
22333;BME280;11334;36.986;-121.936;2024-01-30T08:01:41;101475.25;;;13.61;79.33
22333;BME280;11334;36.986;-121.936;2024-01-30T08:04:08;101478.44;;;13.57;79.52
22333;BME280;11334;36.986;-121.936;2024-01-30T08:06:34;101491.75;;;13.57;79.77
22333;BME280;11334;36.986;-121.936;2024-01-30T08:09:00;101485.72;;;13.55;79.74
22333;BME280;11334;36.986;-121.936;2024-01-30T08:11:26;101481.91;;;13.57;79.66
22333;BME280;11334;36.986;-121.936;2024-01-30T08:13:55;101482.38;;;13.53;80.15
22333;BME280;11334;36.986;-121.936;2024-01-30T08:16:21;101476.84;;;13.46;80.09
22333;BME280;11334;36.986;-121.936;2024-01-30T08:18:47;101483.31;;;13.44;80.36
22333;BME280;11334;36.986;-121.936;2024-01-30T08:21:14;101476.47;;;13.41;80.82
22333;BME280;11334;36.986;-121.936;2024-01-30T08:23:40;101476.47;;;13.41;80.60
22333;BME280;11334;36.986;-121.936;2024-01-30T08:26:06;101490.94;;;13.39;80.96
22333;BME280;11334;36.986;-121.936;2024-01-30T08:28:32;101481.44;;;13.36;81.04
22333;BME280;11334;36.986;-121.936;2024-01-30T08:30:58;101475.97;;;13.38;80.78
22333;BME280;11334;36.986;-121.936;2024-01-30T08:33:25;101474.31;;;13.37;81.13
22333;BME280;11334;36.986;-121.936;2024-01-30T08:35:51;101465.78;;;13.33;80.99
22333;BME280;11334;36.986;-121.936;2024-01-30T08:38:17;101472.63;;;13.36;80.53
22333;BME280;11334;36.986;-121.936;2024-01-30T08:40:43;101481.44;;;13.36;79.77
22333;BME280;11334;36.986;-121.936;2024-01-30T08:43:09;101469.91;;;13.28;80.03
22333;BME280;11334;36.986;-121.936;2024-01-30T08:45:36;101466.50;;;13.18;81.51
22333;BME280;11334;36.986;-121.936;2024-01-30T08:48:02;101465.69;;;13.18;81.38
22333;BME280;11334;36.986;-121.936;2024-01-30T08:50:28;101466.06;;;13.23;80.08
22333;BME280;11334;36.986;-121.936;2024-01-30T08:52:55;101464.53;;;13.20;80.42
22333;BME280;11334;36.986;-121.936;2024-01-30T08:55:22;101462.81;;;13.11;81.49
22333;BME280;11334;36.986;-121.936;2024-01-30T08:57:49;101458.81;;;13.07;81.18
22333;BME280;11334;36.986;-121.936;2024-01-30T09:00:15;101459.09;;;13.04;81.83
22333;BME280;11334;36.986;-121.936;2024-01-30T09:02:42;101457.78;;;13.08;81.23
22333;BME280;11334;36.986;-121.936;2024-01-30T09:05:08;101458.56;;;13.01;80.99
22333;BME280;11334;36.986;-121.936;2024-01-30T09:07:34;101467.56;;;13.00;80.91
22333;BME280;11334;36.986;-121.936;2024-01-30T09:10:01;101468.38;;;13.00;80.81
22333;BME280;11334;36.986;-121.936;2024-01-30T09:12:27;101469.53;;;12.98;80.78
22333;BME280;11334;36.986;-121.936;2024-01-30T09:14:53;101480.94;;;12.91;81.25
22333;BME280;11334;36.986;-121.936;2024-01-30T09:17:20;101471.94;;;12.92;81.75
22333;BME280;11334;36.986;-121.936;2024-01-30T09:19:46;101485.09;;;12.93;81.77
22333;BME280;11334;36.986;-121.936;2024-01-30T09:22:12;101489.44;;;12.94;81.18
22333;BME280;11334;36.986;-121.936;2024-01-30T09:24:39;101491.88;;;12.88;81.42
22333;BME280;11334;36.986;-121.936;2024-01-30T09:27:05;101495.38;;;12.88;81.13
22333;BME280;11334;36.986;-121.936;2024-01-30T09:29:32;101504.03;;;12.90;81.23
22333;BME280;11334;36.986;-121.936;2024-01-30T09:32:00;101511.09;;;12.82;81.60
22333;BME280;11334;36.986;-121.936;2024-01-30T09:34:26;101492.38;;;12.74;81.93
22333;BME280;11334;36.986;-121.936;2024-01-30T09:36:52;101500.22;;;12.75;82.61
22333;BME280;11334;36.986;-121.936;2024-01-30T09:39:18;101508.06;;;12.77;81.54
22333;BME280;11334;36.986;-121.936;2024-01-30T09:41:53;101507.09;;;12.78;82.25
22333;BME280;11334;36.986;-121.936;2024-01-30T09:44:25;101507.91;;;12.78;81.82
22333;BME280;11334;36.986;-121.936;2024-01-30T09:46:53;101509.75;;;12.78;81.80
22333;BME280;11334;36.986;-121.936;2024-01-30T09:49:20;101516.41;;;12.82;81.99
22333;BME280;11334;36.986;-121.936;2024-01-30T09:51:50;101513.78;;;12.72;82.82
22333;BME280;11334;36.986;-121.936;2024-01-30T09:54:18;101510.41;;;12.80;82.82
22333;BME280;11334;36.986;-121.936;2024-01-30T09:56:45;101514.47;;;12.74;82.45
22333;BME280;11334;36.986;-121.936;2024-01-30T09:59:13;101528.78;;;12.73;83.64
22333;BME280;11334;36.986;-121.936;2024-01-30T10:01:40;101526.53;;;12.78;83.27
22333;BME280;11334;36.986;-121.936;2024-01-30T10:04:07;101522.19;;;12.77;83.37
22333;BME280;11334;36.986;-121.936;2024-01-30T10:06:34;101509.78;;;12.68;83.76
22333;BME280;11334;36.986;-121.936;2024-01-30T10:09:00;101522.34;;;12.76;83.32
22333;BME280;11334;36.986;-121.936;2024-01-30T10:11:27;101511.22;;;12.63;83.59
22333;BME280;11334;36.986;-121.936;2024-01-30T10:13:53;101511.28;;;12.71;84.08
22333;BME280;11334;36.986;-121.936;2024-01-30T10:16:20;101517.97;;;12.75;84.16
22333;BME280;11334;36.986;-121.936;2024-01-30T10:18:46;101522.34;;;12.76;84.24
22333;BME280;11334;36.986;-121.936;2024-01-30T10:21:13;101532.97;;;12.76;84.10
22333;BME280;11334;36.986;-121.936;2024-01-30T10:23:39;101524.84;;;12.77;84.84
22333;BME280;11334;36.986;-121.936;2024-01-30T10:26:07;101523.59;;;12.72;85.13
22333;BME280;11334;36.986;-121.936;2024-01-30T10:28:33;101512.44;;;12.68;85.24
22333;BME280;11334;36.986;-121.936;2024-01-30T10:31:00;101519.84;;;12.65;85.96
22333;BME280;11334;36.986;-121.936;2024-01-30T10:33:33;101522.06;;;12.69;85.74
22333;BME280;11334;36.986;-121.936;2024-01-30T10:36:03;101522.44;;;12.74;85.89
22333;BME280;11334;36.986;-121.936;2024-01-30T10:38:33;101521.25;;;12.69;86.04
22333;BME280;11334;36.986;-121.936;2024-01-30T10:41:01;101517.59;;;12.70;86.72
22333;BME280;11334;36.986;-121.936;2024-01-30T10:43:41;101511.28;;;12.71;86.88
22333;BME280;11334;36.986;-121.936;2024-01-30T10:48:44;101507.81;;;12.70;87.78
22333;BME280;11334;36.986;-121.936;2024-01-30T10:51:15;101514.66;;;12.73;87.29
22333;BME280;11334;36.986;-121.936;2024-01-30T10:53:43;101509.34;;;12.73;87.76
22333;BME280;11334;36.986;-121.936;2024-01-30T10:56:13;101499.16;;;12.68;88.15
22333;BME280;11334;36.986;-121.936;2024-01-30T10:58:39;101504.56;;;12.76;88.56
22333;BME280;11334;36.986;-121.936;2024-01-30T11:01:07;101502.59;;;12.78;88.21
22333;BME280;11334;36.986;-121.936;2024-01-30T11:03:34;101495.03;;;12.74;88.43
22333;BME280;11334;36.986;-121.936;2024-01-30T11:06:02;101498.44;;;12.66;89.50
22333;BME280;11334;36.986;-121.936;2024-01-30T11:08:32;101486.53;;;12.70;89.62
22333;BME280;11334;36.986;-121.936;2024-01-30T11:10:58;101477.31;;;12.65;90.23
22333;BME280;11334;36.986;-121.936;2024-01-30T11:13:29;101479.00;;;12.66;90.37
22333;BME280;11334;36.986;-121.936;2024-01-30T11:16:00;101482.88;;;12.71;90.52
22333;BME280;11334;36.986;-121.936;2024-01-30T11:18:29;101481.59;;;12.75;90.45
22333;BME280;11334;36.986;-121.936;2024-01-30T11:21:04;101480.22;;;12.71;90.73
22333;BME280;11334;36.986;-121.936;2024-01-30T11:23:33;101476.03;;;12.69;91.07
22333;BME280;11334;36.986;-121.936;2024-01-30T11:25:59;101467.44;;;12.75;91.22
22333;BME280;11334;36.986;-121.936;2024-01-30T11:28:32;101487.38;;;12.71;91.15
22333;BME280;11334;36.986;-121.936;2024-01-30T11:31:06;101483.72;;;12.72;91.46
22333;BME280;11334;36.986;-121.936;2024-01-30T11:33:37;101493.22;;;12.74;91.12
22333;BME280;11334;36.986;-121.936;2024-01-30T11:36:04;101492.00;;;12.69;91.52
22333;BME280;11334;36.986;-121.936;2024-01-30T11:38:32;101508.06;;;12.77;91.96
22333;BME280;11334;36.986;-121.936;2024-01-30T11:40:59;101494.75;;;12.77;91.70
22333;BME280;11334;36.986;-121.936;2024-01-30T11:43:26;101493.81;;;12.68;91.68
22333;BME280;11334;36.986;-121.936;2024-01-30T11:45:52;101493.97;;;12.67;93.47
22333;BME280;11334;36.986;-121.936;2024-01-30T11:48:19;101498.31;;;12.68;92.98
22333;BME280;11334;36.986;-121.936;2024-01-30T11:50:45;101504.84;;;12.73;93.58
22333;BME280;11334;36.986;-121.936;2024-01-30T11:53:12;101499.09;;;12.78;93.09
22333;BME280;11334;36.986;-121.936;2024-01-30T11:55:38;101477.03;;;12.68;93.64
22333;BME280;11334;36.986;-121.936;2024-01-30T11:58:05;101499.53;;;12.73;93.83
22333;BME280;11334;36.986;-121.936;2024-01-30T12:00:31;101494.66;;;12.69;93.99
22333;BME280;11334;36.986;-121.936;2024-01-30T12:02:59;101486.16;;;12.65;94.20
22333;BME280;11334;36.986;-121.936;2024-01-30T12:05:27;101489.34;;;12.69;94.96
22333;BME280;11334;36.986;-121.936;2024-01-30T12:07:53;101487.81;;;12.66;95.39
22333;BME280;11334;36.986;-121.936;2024-01-30T12:10:21;101480.34;;;12.70;95.76
22333;BME280;11334;36.986;-121.936;2024-01-30T12:12:49;101468.75;;;12.71;96.26
22333;BME280;11334;36.986;-121.936;2024-01-30T12:15:16;101470.41;;;12.72;96.86
22333;BME280;11334;36.986;-121.936;2024-01-30T12:17:42;101469.84;;;12.78;96.87
22333;BME280;11334;36.986;-121.936;2024-01-30T12:20:13;101458.63;;;12.74;97.04